sensor_id;sensor_type;location;lat;lon;timestamp;temperature;humidity
19862;DHT22;10093;48.148;8.542;2023-04-07T00:02:15;5.10;99.90
19862;DHT22;10093;48.148;8.542;2023-04-07T00:04:41;5.20;99.90
19862;DHT22;10093;48.148;8.542;2023-04-07T00:07:07;5.20;99.90
19862;DHT22;10093;48.148;8.542;2023-04-07T00:09:33;5.20;99.90
19862;DHT22;10093;48.148;8.542;2023-04-07T00:11:58;5.00;99.90
19862;DHT22;10093;48.148;8.542;2023-04-07T00:14:27;5.00;99.90
19862;DHT22;10093;48.148;8.542;2023-04-07T00:16:53;4.90;99.90
19862;DHT22;10093;48.148;8.542;2023-04-07T00:19:18;4.90;99.90
19862;DHT22;10093;48.148;8.542;2023-04-07T00:21:44;4.90;99.90
19862;DHT22;10093;48.148;8.542;2023-04-07T00:24:09;4.70;99.90
19862;DHT22;10093;48.148;8.542;2023-04-07T00:26:35;4.60;99.90
19862;DHT22;10093;48.148;8.542;2023-04-07T00:29:01;4.70;99.90
19862;DHT22;10093;48.148;8.542;2023-04-07T00:31:27;4.80;99.90
19862;DHT22;10093;48.148;8.542;2023-04-07T00:33:52;4.70;99.90
19862;DHT22;10093;48.148;8.542;2023-04-07T00:36:18;4.50;99.90
19862;DHT22;10093;48.148;8.542;2023-04-07T00:38:43;4.50;99.90
19862;DHT22;10093;48.148;8.542;2023-04-07T00:41:09;4.40;99.90
19862;DHT22;10093;48.148;8.542;2023-04-07T00:43:35;4.40;99.90
19862;DHT22;10093;48.148;8.542;2023-04-07T00:46:01;4.30;99.90
19862;DHT22;10093;48.148;8.542;2023-04-07T00:48:26;4.20;99.90
19862;DHT22;10093;48.148;8.542;2023-04-07T00:50:52;4.30;99.90
19862;DHT22;10093;48.148;8.542;2023-04-07T00:53:18;4.20;99.90
19862;DHT22;10093;48.148;8.542;2023-04-07T00:55:44;4.20;99.90
19862;DHT22;10093;48.148;8.542;2023-04-07T00:58:10;4.20;99.90
19862;DHT22;10093;48.148;8.542;2023-04-07T01:00:43;4.20;99.90
19862;DHT22;10093;48.148;8.542;2023-04-07T01:03:19;4.20;99.90
19862;DHT22;10093;48.148;8.542;2023-04-07T01:06:00;4.20;99.90
19862;DHT22;10093;48.148;8.542;2023-04-07T01:10:55;4.20;99.90
19862;DHT22;10093;48.148;8.542;2023-04-07T01:15:54;4.10;99.90
19862;DHT22;10093;48.148;8.542;2023-04-07T01:18:25;4.10;99.90
19862;DHT22;10093;48.148;8.542;2023-04-07T01:20:56;4.10;99.90
19862;DHT22;10093;48.148;8.542;2023-04-07T01:24:02;4.10;99.90
19862;DHT22;10093;48.148;8.542;2023-04-07T01:26:34;4.20;99.90
19862;DHT22;10093;48.148;8.542;2023-04-07T01:29:09;4.20;99.90
19862;DHT22;10093;48.148;8.542;2023-04-07T01:31:39;4.10;99.90
19862;DHT22;10093;48.148;8.542;2023-04-07T01:34:10;4.20;99.90
19862;DHT22;10093;48.148;8.542;2023-04-07T01:36:37;4.20;99.90
19862;DHT22;10093;48.148;8.542;2023-04-07T01:39:03;4.20;99.90
19862;DHT22;10093;48.148;8.542;2023-04-07T01:41:29;4.30;99.90
19862;DHT22;10093;48.148;8.542;2023-04-07T01:43:55;4.30;99.90
19862;DHT22;10093;48.148;8.542;2023-04-07T01:46:21;4.40;99.90
19862;DHT22;10093;48.148;8.542;2023-04-07T01:48:47;4.30;99.90
19862;DHT22;10093;48.148;8.542;2023-04-07T01:51:14;4.30;99.90
19862;DHT22;10093;48.148;8.542;2023-04-07T01:53:46;4.20;99.90
19862;DHT22;10093;48.148;8.542;2023-04-07T01:56:13;4.20;99.90
19862;DHT22;10093;48.148;8.542;2023-04-07T01:58:39;4.20;99.90
19862;DHT22;10093;48.148;8.542;2023-04-07T02:01:05;4.20;99.90
19862;DHT22;10093;48.148;8.542;2023-04-07T02:03:42;4.30;99.90
19862;DHT22;10093;48.148;8.542;2023-04-07T02:06:12;4.30;99.90
19862;DHT22;10093;48.148;8.542;2023-04-07T02:08:46;4.30;99.90
19862;DHT22;10093;48.148;8.542;2023-04-07T02:11:15;4.30;99.90
19862;DHT22;10093;48.148;8.542;2023-04-07T02:13:42;4.30;99.90
19862;DHT22;10093;48.148;8.542;2023-04-07T02:16:09;4.20;99.90
19862;DHT22;10093;48.148;8.542;2023-04-07T02:18:36;4.20;99.90
19862;DHT22;10093;48.148;8.542;2023-04-07T02:21:03;4.20;99.90
19862;DHT22;10093;48.148;8.542;2023-04-07T02:23:30;4.20;99.90
19862;DHT22;10093;48.148;8.542;2023-04-07T02:25:58;4.30;99.90
19862;DHT22;10093;48.148;8.542;2023-04-07T02:28:24;4.30;99.90
19862;DHT22;10093;48.148;8.542;2023-04-07T02:30:50;4.20;99.90
19862;DHT22;10093;48.148;8.542;2023-04-07T02:33:16;4.20;99.90
19862;DHT22;10093;48.148;8.542;2023-04-07T02:35:41;4.20;99.90
19862;DHT22;10093;48.148;8.542;2023-04-07T02:38:07;4.20;99.90
19862;DHT22;10093;48.148;8.542;2023-04-07T02:40:32;4.20;99.90
19862;DHT22;10093;48.148;8.542;2023-04-07T02:42:58;4.10;99.90
19862;DHT22;10093;48.148;8.542;2023-04-07T02:45:24;4.10;99.90
19862;DHT22;10093;48.148;8.542;2023-04-07T02:47:49;4.10;99.90
19862;DHT22;10093;48.148;8.542;2023-04-07T02:50:15;4.10;99.90
19862;DHT22;10093;48.148;8.542;2023-04-07T02:52:40;4.10;99.90
19862;DHT22;10093;48.148;8.542;2023-04-07T02:55:06;4.10;99.90
19862;DHT22;10093;48.148;8.542;2023-04-07T02:57:32;4.10;99.90
19862;DHT22;10093;48.148;8.542;2023-04-07T02:59:58;4.10;99.90
19862;DHT22;10093;48.148;8.542;2023-04-07T03:02:24;4.10;99.90
19862;DHT22;10093;48.148;8.542;2023-04-07T03:04:52;4.10;99.90
19862;DHT22;10093;48.148;8.542;2023-04-07T03:07:18;4.00;99.90
19862;DHT22;10093;48.148;8.542;2023-04-07T03:09:44;4.10;99.90
19862;DHT22;10093;48.148;8.542;2023-04-07T03:12:10;4.10;99.90
19862;DHT22;10093;48.148;8.542;2023-04-07T03:14:36;4.10;99.90
19862;DHT22;10093;48.148;8.542;2023-04-07T03:17:02;4.00;99.90
19862;DHT22;10093;48.148;8.542;2023-04-07T03:19:28;4.00;99.90
19862;DHT22;10093;48.148;8.542;2023-04-07T03:21:53;3.90;99.90
19862;DHT22;10093;48.148;8.542;2023-04-07T03:24:19;3.90;99.90
19862;DHT22;10093;48.148;8.542;2023-04-07T03:26:45;3.90;99.90
19862;DHT22;10093;48.148;8.542;2023-04-07T03:29:10;3.90;99.90
19862;DHT22;10093;48.148;8.542;2023-04-07T03:31:36;3.90;99.90
19862;DHT22;10093;48.148;8.542;2023-04-07T03:34:02;3.90;99.90
19862;DHT22;10093;48.148;8.542;2023-04-07T03:36:28;3.90;99.90
19862;DHT22;10093;48.148;8.542;2023-04-07T03:38:56;3.90;99.90
19862;DHT22;10093;48.148;8.542;2023-04-07T03:41:22;3.80;99.90
19862;DHT22;10093;48.148;8.542;2023-04-07T03:43:47;3.90;99.90
19862;DHT22;10093;48.148;8.542;2023-04-07T03:46:13;3.80;99.90
19862;DHT22;10093;48.148;8.542;2023-04-07T03:48:39;3.70;99.90
19862;DHT22;10093;48.148;8.542;2023-04-07T03:51:05;3.70;99.90
19862;DHT22;10093;48.148;8.542;2023-04-07T03:53:31;3.80;99.90
19862;DHT22;10093;48.148;8.542;2023-04-07T03:55:57;3.90;99.90
19862;DHT22;10093;48.148;8.542;2023-04-07T03:58:22;4.10;99.90
19862;DHT22;10093;48.148;8.542;2023-04-07T04:00:48;4.30;99.90
19862;DHT22;10093;48.148;8.542;2023-04-07T04:03:14;4.30;99.90
19862;DHT22;10093;48.148;8.542;2023-04-07T04:05:39;4.10;99.90
19862;DHT22;10093;48.148;8.542;2023-04-07T04:08:05;4.00;99.90
19862;DHT22;10093;48.148;8.542;2023-04-07T04:10:31;4.00;99.90
19862;DHT22;10093;48.148;8.542;2023-04-07T04:12:57;3.90;99.90
19862;DHT22;10093;48.148;8.542;2023-04-07T04:15:25;3.80;99.90
19862;DHT22;10093;48.148;8.542;2023-04-07T04:17:51;3.80;99.90
19862;DHT22;10093;48.148;8.542;2023-04-07T04:20:16;3.80;99.90
19862;DHT22;10093;48.148;8.542;2023-04-07T04:22:42;3.80;99.90
19862;DHT22;10093;48.148;8.542;2023-04-07T04:25:08;3.60;99.90
19862;DHT22;10093;48.148;8.542;2023-04-07T04:27:34;3.60;99.90
19862;DHT22;10093;48.148;8.542;2023-04-07T04:29:59;3.50;99.90
19862;DHT22;10093;48.148;8.542;2023-04-07T04:32:25;3.60;99.90
19862;DHT22;10093;48.148;8.542;2023-04-07T04:34:51;3.60;99.90
19862;DHT22;10093;48.148;8.542;2023-04-07T04:37:16;3.50;99.90
19862;DHT22;10093;48.148;8.542;2023-04-07T04:39:42;3.40;99.90
19862;DHT22;10093;48.148;8.542;2023-04-07T04:42:08;3.30;99.90
19862;DHT22;10093;48.148;8.542;2023-04-07T04:44:33;3.60;99.90
19862;DHT22;10093;48.148;8.542;2023-04-07T04:46:59;3.70;99.90
19862;DHT22;10093;48.148;8.542;2023-04-07T04:49:25;3.50;99.90
19862;DHT22;10093;48.148;8.542;2023-04-07T04:51:50;3.40;99.90
19862;DHT22;10093;48.148;8.542;2023-04-07T04:54:19;3.20;99.90
19862;DHT22;10093;48.148;8.542;2023-04-07T04:56:45;3.10;99.90
19862;DHT22;10093;48.148;8.542;2023-04-07T04:59:10;3.00;99.90
19862;DHT22;10093;48.148;8.542;2023-04-07T05:01:36;3.00;99.90
19862;DHT22;10093;48.148;8.542;2023-04-07T05:04:01;2.90;99.90
19862;DHT22;10093;48.148;8.542;2023-04-07T05:06:27;2.90;99.90
19862;DHT22;10093;48.148;8.542;2023-04-07T05:08:53;2.90;99.90
19862;DHT22;10093;48.148;8.542;2023-04-07T05:11:20;2.90;99.90
19862;DHT22;10093;48.148;8.542;2023-04-07T05:13:46;3.00;99.90
19862;DHT22;10093;48.148;8.542;2023-04-07T05:16:12;3.20;99.90
19862;DHT22;10093;48.148;8.542;2023-04-07T05:18:38;3.40;99.90
19862;DHT22;10093;48.148;8.542;2023-04-07T05:21:03;3.50;99.90
19862;DHT22;10093;48.148;8.542;2023-04-07T05:23:29;3.50;99.90
19862;DHT22;10093;48.148;8.542;2023-04-07T05:25:54;3.50;99.90
19862;DHT22;10093;48.148;8.542;2023-04-07T05:28:21;3.80;99.90
19862;DHT22;10093;48.148;8.542;2023-04-07T05:30:47;4.20;99.90
19862;DHT22;10093;48.148;8.542;2023-04-07T05:33:12;4.50;99.90
19862;DHT22;10093;48.148;8.542;2023-04-07T05:35:38;4.60;99.90
19862;DHT22;10093;48.148;8.542;2023-04-07T05:38:03;4.60;99.90
19862;DHT22;10093;48.148;8.542;2023-04-07T05:40:29;4.60;99.90
19862;DHT22;10093;48.148;8.542;2023-04-07T05:42:55;4.60;99.90
19862;DHT22;10093;48.148;8.542;2023-04-07T05:45:21;4.80;99.90
19862;DHT22;10093;48.148;8.542;2023-04-07T05:47:46;5.00;99.90
19862;DHT22;10093;48.148;8.542;2023-04-07T05:50:15;5.30;99.90
19862;DHT22;10093;48.148;8.542;2023-04-07T05:52:41;5.40;99.90
19862;DHT22;10093;48.148;8.542;2023-04-07T05:55:07;5.30;99.90
19862;DHT22;10093;48.148;8.542;2023-04-07T05:57:32;5.10;99.90
19862;DHT22;10093;48.148;8.542;2023-04-07T05:59:59;5.00;99.90
19862;DHT22;10093;48.148;8.542;2023-04-07T06:02:24;5.10;99.90
19862;DHT22;10093;48.148;8.542;2023-04-07T06:04:50;5.30;99.90
19862;DHT22;10093;48.148;8.542;2023-04-07T06:07:16;5.40;99.90
19862;DHT22;10093;48.148;8.542;2023-04-07T06:09:42;5.60;99.90
19862;DHT22;10093;48.148;8.542;2023-04-07T06:12:07;5.50;99.90
19862;DHT22;10093;48.148;8.542;2023-04-07T06:14:33;5.50;99.90
19862;DHT22;10093;48.148;8.542;2023-04-07T06:16:59;5.70;99.90
19862;DHT22;10093;48.148;8.542;2023-04-07T06:19:25;5.90;99.90
19862;DHT22;10093;48.148;8.542;2023-04-07T06:21:54;6.10;99.90
19862;DHT22;10093;48.148;8.542;2023-04-07T06:24:19;5.80;99.90
19862;DHT22;10093;48.148;8.542;2023-04-07T06:26:47;5.90;99.90
19862;DHT22;10093;48.148;8.542;2023-04-07T06:29:14;6.30;99.90
19862;DHT22;10093;48.148;8.542;2023-04-07T06:31:39;6.70;99.90
19862;DHT22;10093;48.148;8.542;2023-04-07T06:34:05;8.00;99.90
19862;DHT22;10093;48.148;8.542;2023-04-07T06:36:31;8.50;99.90
19862;DHT22;10093;48.148;8.542;2023-04-07T06:38:58;9.20;99.90
19862;DHT22;10093;48.148;8.542;2023-04-07T06:41:24;11.00;99.90
19862;DHT22;10093;48.148;8.542;2023-04-07T06:43:49;11.90;99.90
19862;DHT22;10093;48.148;8.542;2023-04-07T06:46:18;10.60;99.90
19862;DHT22;10093;48.148;8.542;2023-04-07T06:48:44;10.70;99.90
19862;DHT22;10093;48.148;8.542;2023-04-07T06:51:10;11.50;99.90
19862;DHT22;10093;48.148;8.542;2023-04-07T06:53:36;11.80;99.90
19862;DHT22;10093;48.148;8.542;2023-04-07T06:56:06;11.50;99.90
19862;DHT22;10093;48.148;8.542;2023-04-07T06:58:33;10.10;99.90
19862;DHT22;10093;48.148;8.542;2023-04-07T07:00:59;8.60;99.90
19862;DHT22;10093;48.148;8.542;2023-04-07T07:03:25;8.50;99.90
19862;DHT22;10093;48.148;8.542;2023-04-07T07:05:53;8.30;99.90
19862;DHT22;10093;48.148;8.542;2023-04-07T07:08:21;7.60;99.90
19862;DHT22;10093;48.148;8.542;2023-04-07T07:10:46;7.50;99.90
19862;DHT22;10093;48.148;8.542;2023-04-07T07:13:12;8.00;99.90
19862;DHT22;10093;48.148;8.542;2023-04-07T07:15:38;8.20;99.90
19862;DHT22;10093;48.148;8.542;2023-04-07T07:18:03;8.50;99.90
19862;DHT22;10093;48.148;8.542;2023-04-07T07:20:29;9.10;99.90
19862;DHT22;10093;48.148;8.542;2023-04-07T07:22:55;9.50;99.90
19862;DHT22;10093;48.148;8.542;2023-04-07T07:25:21;9.70;99.90
19862;DHT22;10093;48.148;8.542;2023-04-07T07:27:47;11.00;99.90
19862;DHT22;10093;48.148;8.542;2023-04-07T07:30:20;12.30;99.90
19862;DHT22;10093;48.148;8.542;2023-04-07T07:32:46;13.30;99.90
19862;DHT22;10093;48.148;8.542;2023-04-07T07:35:12;13.40;99.90
19862;DHT22;10093;48.148;8.542;2023-04-07T07:37:37;14.10;99.90
19862;DHT22;10093;48.148;8.542;2023-04-07T07:40:03;14.80;99.90
19862;DHT22;10093;48.148;8.542;2023-04-07T07:42:30;15.50;99.90
19862;DHT22;10093;48.148;8.542;2023-04-07T07:44:56;16.80;99.90
19862;DHT22;10093;48.148;8.542;2023-04-07T07:47:22;17.70;99.90
19862;DHT22;10093;48.148;8.542;2023-04-07T07:49:47;17.50;99.90
19862;DHT22;10093;48.148;8.542;2023-04-07T07:52:13;17.40;99.90
19862;DHT22;10093;48.148;8.542;2023-04-07T07:54:39;16.20;99.90
19862;DHT22;10093;48.148;8.542;2023-04-07T07:57:05;13.60;99.90
19862;DHT22;10093;48.148;8.542;2023-04-07T07:59:31;13.10;99.90
19862;DHT22;10093;48.148;8.542;2023-04-07T08:01:57;14.00;99.90
19862;DHT22;10093;48.148;8.542;2023-04-07T08:04:23;13.30;99.90
19862;DHT22;10093;48.148;8.542;2023-04-07T08:06:50;14.60;99.90
19862;DHT22;10093;48.148;8.542;2023-04-07T08:09:16;16.00;99.90
19862;DHT22;10093;48.148;8.542;2023-04-07T08:11:42;16.00;99.90
19862;DHT22;10093;48.148;8.542;2023-04-07T08:14:08;15.70;99.90
19862;DHT22;10093;48.148;8.542;2023-04-07T08:16:33;14.50;99.90
19862;DHT22;10093;48.148;8.542;2023-04-07T08:18:59;15.80;99.90
19862;DHT22;10093;48.148;8.542;2023-04-07T08:21:25;16.40;99.90
19862;DHT22;10093;48.148;8.542;2023-04-07T08:23:53;16.10;99.90
19862;DHT22;10093;48.148;8.542;2023-04-07T08:26:19;14.90;99.90
19862;DHT22;10093;48.148;8.542;2023-04-07T08:28:45;13.90;99.90
19862;DHT22;10093;48.148;8.542;2023-04-07T08:31:11;12.80;99.90
19862;DHT22;10093;48.148;8.542;2023-04-07T08:33:37;12.50;99.90
19862;DHT22;10093;48.148;8.542;2023-04-07T08:36:02;13.70;99.90
19862;DHT22;10093;48.148;8.542;2023-04-07T08:38:28;15.00;99.90
19862;DHT22;10093;48.148;8.542;2023-04-07T08:40:59;15.90;99.90
19862;DHT22;10093;48.148;8.542;2023-04-07T08:43:25;15.80;99.90
19862;DHT22;10093;48.148;8.542;2023-04-07T08:45:56;16.10;99.90
19862;DHT22;10093;48.148;8.542;2023-04-07T08:48:23;16.00;99.90
19862;DHT22;10093;48.148;8.542;2023-04-07T08:50:53;15.90;99.90
19862;DHT22;10093;48.148;8.542;2023-04-07T08:53:24;16.80;99.90
19862;DHT22;10093;48.148;8.542;2023-04-07T08:55:53;15.40;99.90
19862;DHT22;10093;48.148;8.542;2023-04-07T08:58:20;15.40;99.90
19862;DHT22;10093;48.148;8.542;2023-04-07T09:00:46;16.80;99.90
19862;DHT22;10093;48.148;8.542;2023-04-07T09:03:15;17.50;99.90
19862;DHT22;10093;48.148;8.542;2023-04-07T09:05:43;17.90;99.90
19862;DHT22;10093;48.148;8.542;2023-04-07T09:08:10;18.00;99.90
19862;DHT22;10093;48.148;8.542;2023-04-07T09:10:36;18.40;99.90
19862;DHT22;10093;48.148;8.542;2023-04-07T09:13:02;18.60;99.90
19862;DHT22;10093;48.148;8.542;2023-04-07T09:15:31;17.50;99.90
19862;DHT22;10093;48.148;8.542;2023-04-07T09:17:57;14.80;99.90
19862;DHT22;10093;48.148;8.542;2023-04-07T09:20:23;14.90;99.90
19862;DHT22;10093;48.148;8.542;2023-04-07T09:22:49;15.20;99.90
19862;DHT22;10093;48.148;8.542;2023-04-07T09:25:18;16.10;99.90
19862;DHT22;10093;48.148;8.542;2023-04-07T09:28:01;15.80;99.90
19862;DHT22;10093;48.148;8.542;2023-04-07T09:30:31;14.70;99.90
19862;DHT22;10093;48.148;8.542;2023-04-07T09:32:58;14.40;99.90
19862;DHT22;10093;48.148;8.542;2023-04-07T09:35:24;13.90;99.90
19862;DHT22;10093;48.148;8.542;2023-04-07T09:38:05;12.60;99.90
19862;DHT22;10093;48.148;8.542;2023-04-07T09:40:31;11.60;99.90
19862;DHT22;10093;48.148;8.542;2023-04-07T09:42:57;11.10;99.90
19862;DHT22;10093;48.148;8.542;2023-04-07T09:45:28;10.90;99.90
19862;DHT22;10093;48.148;8.542;2023-04-07T09:47:54;10.80;99.90
19862;DHT22;10093;48.148;8.542;2023-04-07T09:50:37;10.50;99.90
19862;DHT22;10093;48.148;8.542;2023-04-07T09:53:03;10.60;99.90
19862;DHT22;10093;48.148;8.542;2023-04-07T09:55:29;10.70;99.90
19862;DHT22;10093;48.148;8.542;2023-04-07T09:57:55;10.70;99.90
19862;DHT22;10093;48.148;8.542;2023-04-07T10:00:22;10.90;99.90
19862;DHT22;10093;48.148;8.542;2023-04-07T10:02:47;10.90;99.90
19862;DHT22;10093;48.148;8.542;2023-04-07T10:05:15;10.70;99.90
19862;DHT22;10093;48.148;8.542;2023-04-07T10:07:42;10.80;99.90
19862;DHT22;10093;48.148;8.542;2023-04-07T10:10:08;11.00;99.90
19862;DHT22;10093;48.148;8.542;2023-04-07T10:12:36;11.30;99.90
19862;DHT22;10093;48.148;8.542;2023-04-07T10:15:03;11.60;99.90
19862;DHT22;10093;48.148;8.542;2023-04-07T10:17:33;11.90;99.90
19862;DHT22;10093;48.148;8.542;2023-04-07T10:20:00;12.40;99.90
19862;DHT22;10093;48.148;8.542;2023-04-07T10:22:29;12.60;99.90
19862;DHT22;10093;48.148;8.542;2023-04-07T10:24:59;12.60;99.90
19862;DHT22;10093;48.148;8.542;2023-04-07T10:27:34;12.90;99.90
19862;DHT22;10093;48.148;8.542;2023-04-07T10:30:02;13.00;99.90
19862;DHT22;10093;48.148;8.542;2023-04-07T10:32:29;12.50;99.90
19862;DHT22;10093;48.148;8.542;2023-04-07T10:34:56;12.80;99.90
19862;DHT22;10093;48.148;8.542;2023-04-07T10:37:23;13.10;99.90
19862;DHT22;10093;48.148;8.542;2023-04-07T10:40:26;13.90;99.90
19862;DHT22;10093;48.148;8.542;2023-04-07T10:45:06;14.30;99.90
19862;DHT22;10093;48.148;8.542;2023-04-07T10:50:22;14.10;99.90
19862;DHT22;10093;48.148;8.542;2023-04-07T10:53:03;13.70;99.90
19862;DHT22;10093;48.148;8.542;2023-04-07T10:55:43;13.40;99.90
19862;DHT22;10093;48.148;8.542;2023-04-07T11:03:25;13.60;99.90
19862;DHT22;10093;48.148;8.542;2023-04-07T11:05:51;13.30;99.90
19862;DHT22;10093;48.148;8.542;2023-04-07T11:08:33;13.50;99.90
19862;DHT22;10093;48.148;8.542;2023-04-07T11:10:59;13.40;99.90
19862;DHT22;10093;48.148;8.542;2023-04-07T11:13:25;14.10;99.90
19862;DHT22;10093;48.148;8.542;2023-04-07T11:15:52;15.00;99.90
19862;DHT22;10093;48.148;8.542;2023-04-07T11:18:21;15.20;99.90
19862;DHT22;10093;48.148;8.542;2023-04-07T11:20:55;14.50;99.90
19862;DHT22;10093;48.148;8.542;2023-04-07T11:23:23;14.50;99.90
19862;DHT22;10093;48.148;8.542;2023-04-07T11:25:51;14.30;99.90
19862;DHT22;10093;48.148;8.542;2023-04-07T11:28:18;13.70;99.90
19862;DHT22;10093;48.148;8.542;2023-04-07T11:30:49;13.20;99.90
19862;DHT22;10093;48.148;8.542;2023-04-07T11:33:25;13.00;99.90
19862;DHT22;10093;48.148;8.542;2023-04-07T11:35:58;12.60;99.90
19862;DHT22;10093;48.148;8.542;2023-04-07T11:38:29;12.60;99.90
19862;DHT22;10093;48.148;8.542;2023-04-07T11:40:55;12.50;99.90
19862;DHT22;10093;48.148;8.542;2023-04-07T11:43:23;12.10;99.90
19862;DHT22;10093;48.148;8.542;2023-04-07T11:46:14;12.00;99.90
19862;DHT22;10093;48.148;8.542;2023-04-07T11:48:42;11.90;99.90
19862;DHT22;10093;48.148;8.542;2023-04-07T11:53:41;11.80;99.90
19862;DHT22;10093;48.148;8.542;2023-04-07T11:56:13;11.80;99.90
19862;DHT22;10093;48.148;8.542;2023-04-07T11:58:46;11.30;99.90
19862;DHT22;10093;48.148;8.542;2023-04-07T12:01:13;10.70;99.90
19862;DHT22;10093;48.148;8.542;2023-04-07T12:03:54;10.10;99.90
19862;DHT22;10093;48.148;8.542;2023-04-07T12:09:02;9.90;99.90
19862;DHT22;10093;48.148;8.542;2023-04-07T12:11:28;9.90;99.90
19862;DHT22;10093;48.148;8.542;2023-04-07T12:13:54;9.80;99.90
19862;DHT22;10093;48.148;8.542;2023-04-07T12:16:21;9.80;99.90
19862;DHT22;10093;48.148;8.542;2023-04-07T12:18:47;9.90;99.90
19862;DHT22;10093;48.148;8.542;2023-04-07T12:21:13;9.80;99.90
19862;DHT22;10093;48.148;8.542;2023-04-07T12:23:39;9.90;99.90
19862;DHT22;10093;48.148;8.542;2023-04-07T12:26:05;10.10;99.90
19862;DHT22;10093;48.148;8.542;2023-04-07T12:28:31;10.50;99.90
19862;DHT22;10093;48.148;8.542;2023-04-07T12:30:57;10.80;99.90
19862;DHT22;10093;48.148;8.542;2023-04-07T12:33:23;11.20;99.90
19862;DHT22;10093;48.148;8.542;2023-04-07T12:35:48;11.60;99.90
19862;DHT22;10093;48.148;8.542;2023-04-07T12:38:14;12.10;99.90
19862;DHT22;10093;48.148;8.542;2023-04-07T12:40:40;12.70;99.90
19862;DHT22;10093;48.148;8.542;2023-04-07T12:43:06;13.20;99.90
19862;DHT22;10093;48.148;8.542;2023-04-07T12:45:32;13.60;99.90
19862;DHT22;10093;48.148;8.542;2023-04-07T12:47:58;13.90;99.90
19862;DHT22;10093;48.148;8.542;2023-04-07T12:50:23;14.20;99.90
19862;DHT22;10093;48.148;8.542;2023-04-07T12:52:50;14.20;99.90
19862;DHT22;10093;48.148;8.542;2023-04-07T12:55:16;13.90;99.90
19862;DHT22;10093;48.148;8.542;2023-04-07T12:57:42;13.70;99.90
19862;DHT22;10093;48.148;8.542;2023-04-07T13:00:08;13.50;99.90
19862;DHT22;10093;48.148;8.542;2023-04-07T13:02:34;13.30;99.90
19862;DHT22;10093;48.148;8.542;2023-04-07T13:05:02;13.10;99.90
19862;DHT22;10093;48.148;8.542;2023-04-07T13:07:27;13.00;99.90
19862;DHT22;10093;48.148;8.542;2023-04-07T13:09:53;13.10;99.90
19862;DHT22;10093;48.148;8.542;2023-04-07T13:12:19;13.20;99.90
19862;DHT22;10093;48.148;8.542;2023-04-07T13:14:45;13.10;99.90
19862;DHT22;10093;48.148;8.542;2023-04-07T13:17:11;12.70;99.90
19862;DHT22;10093;48.148;8.542;2023-04-07T13:19:37;12.20;99.90
19862;DHT22;10093;48.148;8.542;2023-04-07T13:22:03;12.00;99.90
19862;DHT22;10093;48.148;8.542;2023-04-07T13:24:28;11.90;99.90
19862;DHT22;10093;48.148;8.542;2023-04-07T13:26:54;11.80;99.90
19862;DHT22;10093;48.148;8.542;2023-04-07T13:29:20;11.80;99.90
19862;DHT22;10093;48.148;8.542;2023-04-07T13:31:46;11.50;99.90
19862;DHT22;10093;48.148;8.542;2023-04-07T13:34:13;11.10;99.90
19862;DHT22;10093;48.148;8.542;2023-04-07T13:36:39;10.70;99.90
19862;DHT22;10093;48.148;8.542;2023-04-07T13:39:05;10.70;99.90
19862;DHT22;10093;48.148;8.542;2023-04-07T13:41:31;9.70;99.90
19862;DHT22;10093;48.148;8.542;2023-04-07T13:43:57;8.90;99.90
19862;DHT22;10093;48.148;8.542;2023-04-07T13:46:25;8.20;99.90
19862;DHT22;10093;48.148;8.542;2023-04-07T13:48:51;7.80;99.90
19862;DHT22;10093;48.148;8.542;2023-04-07T13:51:17;7.30;99.90
19862;DHT22;10093;48.148;8.542;2023-04-07T13:53:43;7.20;99.90
19862;DHT22;10093;48.148;8.542;2023-04-07T13:56:08;6.70;99.90
19862;DHT22;10093;48.148;8.542;2023-04-07T13:58:35;6.10;99.90
19862;DHT22;10093;48.148;8.542;2023-04-07T14:01:01;5.50;99.90
19862;DHT22;10093;48.148;8.542;2023-04-07T14:03:27;5.20;99.90
19862;DHT22;10093;48.148;8.542;2023-04-07T14:05:53;5.00;99.90
19862;DHT22;10093;48.148;8.542;2023-04-07T14:08:21;4.80;99.90
19862;DHT22;10093;48.148;8.542;2023-04-07T14:10:48;4.60;99.90
19862;DHT22;10093;48.148;8.542;2023-04-07T14:13:14;4.50;99.90
19862;DHT22;10093;48.148;8.542;2023-04-07T14:15:40;4.50;99.90
19862;DHT22;10093;48.148;8.542;2023-04-07T14:18:06;4.50;99.90
19862;DHT22;10093;48.148;8.542;2023-04-07T14:20:32;4.40;99.90
19862;DHT22;10093;48.148;8.542;2023-04-07T14:22:57;4.30;99.90
19862;DHT22;10093;48.148;8.542;2023-04-07T14:25:23;4.40;99.90
19862;DHT22;10093;48.148;8.542;2023-04-07T14:27:50;4.40;99.90
19862;DHT22;10093;48.148;8.542;2023-04-07T14:30:16;4.50;99.90
19862;DHT22;10093;48.148;8.542;2023-04-07T14:32:42;4.70;99.90
19862;DHT22;10093;48.148;8.542;2023-04-07T14:35:08;4.80;99.90
19862;DHT22;10093;48.148;8.542;2023-04-07T14:37:34;4.90;99.90
19862;DHT22;10093;48.148;8.542;2023-04-07T14:40:01;5.00;99.90
19862;DHT22;10093;48.148;8.542;2023-04-07T14:42:27;4.80;99.90
19862;DHT22;10093;48.148;8.542;2023-04-07T14:44:54;4.90;99.90
19862;DHT22;10093;48.148;8.542;2023-04-07T14:47:20;5.00;99.90
19862;DHT22;10093;48.148;8.542;2023-04-07T14:49:46;5.00;99.90
19862;DHT22;10093;48.148;8.542;2023-04-07T14:52:11;5.20;99.90
19862;DHT22;10093;48.148;8.542;2023-04-07T14:54:38;5.20;99.90
19862;DHT22;10093;48.148;8.542;2023-04-07T14:57:04;5.20;99.90
19862;DHT22;10093;48.148;8.542;2023-04-07T14:59:30;5.30;99.90
19862;DHT22;10093;48.148;8.542;2023-04-07T15:01:56;5.40;99.90
19862;DHT22;10093;48.148;8.542;2023-04-07T15:04:21;5.50;99.90
19862;DHT22;10093;48.148;8.542;2023-04-07T15:06:47;5.60;99.90
19862;DHT22;10093;48.148;8.542;2023-04-07T15:09:13;5.60;99.90
19862;DHT22;10093;48.148;8.542;2023-04-07T15:11:38;5.80;99.90
19862;DHT22;10093;48.148;8.542;2023-04-07T15:14:04;5.80;99.90
19862;DHT22;10093;48.148;8.542;2023-04-07T15:16:31;5.90;99.90
19862;DHT22;10093;48.148;8.542;2023-04-07T15:18:57;6.00;99.90
19862;DHT22;10093;48.148;8.542;2023-04-07T15:21:23;6.00;99.90
19862;DHT22;10093;48.148;8.542;2023-04-07T15:23:48;5.90;99.90
19862;DHT22;10093;48.148;8.542;2023-04-07T15:26:14;5.80;99.90
19862;DHT22;10093;48.148;8.542;2023-04-07T15:28:40;5.80;99.90
19862;DHT22;10093;48.148;8.542;2023-04-07T15:31:05;5.80;99.90
19862;DHT22;10093;48.148;8.542;2023-04-07T15:33:35;5.60;99.90
19862;DHT22;10093;48.148;8.542;2023-04-07T15:36:00;5.70;99.90
19862;DHT22;10093;48.148;8.542;2023-04-07T15:38:29;5.80;99.90
19862;DHT22;10093;48.148;8.542;2023-04-07T15:40:55;6.00;99.90
19862;DHT22;10093;48.148;8.542;2023-04-07T15:43:20;5.90;99.90
19862;DHT22;10093;48.148;8.542;2023-04-07T15:45:46;5.90;99.90
19862;DHT22;10093;48.148;8.542;2023-04-07T15:48:13;6.00;99.90
19862;DHT22;10093;48.148;8.542;2023-04-07T15:50:39;6.00;99.90
19862;DHT22;10093;48.148;8.542;2023-04-07T15:53:05;6.10;99.90
19862;DHT22;10093;48.148;8.542;2023-04-07T15:55:31;6.00;99.90
19862;DHT22;10093;48.148;8.542;2023-04-07T15:57:57;6.20;99.90
19862;DHT22;10093;48.148;8.542;2023-04-07T16:00:24;6.20;99.90